createdAt,value
2022-08-05T00:01:35.588Z,25.00
2022-08-05T00:04:05.105Z,24.90
2022-08-05T00:06:36.126Z,24.90
2022-08-05T00:09:13.101Z,24.90
2022-08-05T00:11:49.037Z,24.90
2022-08-05T00:14:17.634Z,24.80
2022-08-05T00:16:52.971Z,24.80
2022-08-05T00:19:23.331Z,24.70
2022-08-05T00:21:52.301Z,24.60
2022-08-05T00:24:24.768Z,24.60
2022-08-05T00:26:57.775Z,24.50
2022-08-05T00:29:26.193Z,24.50
2022-08-05T00:32:13.507Z,24.50
2022-08-05T00:35:05.595Z,24.50
2022-08-05T00:37:35.647Z,24.50
2022-08-05T00:40:28.425Z,24.40
2022-08-05T00:43:02.178Z,24.30
2022-08-05T00:45:39.441Z,24.30
2022-08-05T00:48:27.398Z,24.30
2022-08-05T00:50:54.854Z,24.30
2022-08-05T00:54:00.396Z,24.20
2022-08-05T00:56:12.080Z,24.20
2022-08-05T00:58:39.227Z,24.10
2022-08-05T01:01:12.205Z,24.10
2022-08-05T01:03:40.412Z,24.00
2022-08-05T01:06:14.234Z,24.00
2022-08-05T01:08:44.225Z,23.90
2022-08-05T01:11:36.838Z,24.00
2022-08-05T01:14:28.222Z,23.90
2022-08-05T01:17:17.740Z,23.90
2022-08-05T01:20:00.770Z,23.80
2022-08-05T01:23:23.480Z,23.70
2022-08-05T01:26:18.444Z,23.60
2022-08-05T01:29:05.348Z,23.60
2022-08-05T01:31:52.524Z,23.50
2022-08-05T01:34:28.123Z,23.40
2022-08-05T01:37:37.900Z,23.40
2022-08-05T01:40:13.964Z,23.40
2022-08-05T01:42:49.139Z,23.30
2022-08-05T01:45:18.201Z,23.30
2022-08-05T01:47:49.967Z,23.30
2022-08-05T01:50:36.108Z,23.30
2022-08-05T01:53:13.348Z,23.30
2022-08-05T01:55:45.242Z,23.20
2022-08-05T01:58:17.101Z,23.20
2022-08-05T02:00:50.986Z,23.10
2022-08-05T02:03:31.574Z,23.10
2022-08-05T02:06:03.631Z,23.10
2022-08-05T02:08:58.654Z,23.10
2022-08-05T02:11:52.909Z,23.10
2022-08-05T02:14:47.223Z,23.10
2022-08-05T02:18:28.258Z,23.00
2022-08-05T02:20:23.251Z,23.00
2022-08-05T02:23:05.772Z,23.00
2022-08-05T02:25:50.111Z,23.00
2022-08-05T02:28:33.088Z,22.90
2022-08-05T02:31:07.695Z,22.90
2022-08-05T02:33:57.557Z,22.90
2022-08-05T02:36:31.323Z,22.90
2022-08-05T02:39:01.730Z,22.90
2022-08-05T02:41:36.370Z,22.80
2022-08-05T02:44:24.618Z,22.80
2022-08-05T02:46:59.733Z,22.80
2022-08-05T02:49:37.748Z,22.80
2022-08-05T02:52:30.036Z,22.80
2022-08-05T02:55:02.026Z,22.80
2022-08-05T02:58:10.044Z,22.80
2022-08-05T03:00:20.818Z,22.80
2022-08-05T03:02:50.543Z,22.80
2022-08-05T03:05:21.849Z,22.80
2022-08-05T03:08:09.499Z,22.80
2022-08-05T03:10:36.865Z,22.70
2022-08-05T03:13:17.104Z,22.70
2022-08-05T03:15:46.139Z,22.70
2022-08-05T03:18:14.006Z,22.70
2022-08-05T03:20:44.555Z,22.60
2022-08-05T03:23:16.359Z,22.60
2022-08-05T03:26:05.035Z,22.50
2022-08-05T03:28:31.571Z,22.50
2022-08-05T03:31:02.430Z,22.50
2022-08-05T03:33:51.043Z,22.50
2022-08-05T03:36:18.346Z,22.50
2022-08-05T03:38:58.259Z,22.50
2022-08-05T03:41:25.559Z,22.40
2022-08-05T03:44:10.991Z,22.40
2022-08-05T03:46:39.045Z,22.40
2022-08-05T03:49:06.700Z,22.40
2022-08-05T03:52:36.627Z,22.30
2022-08-05T03:55:52.963Z,22.30
2022-08-05T03:57:44.559Z,22.20
2022-08-05T04:00:16.648Z,22.20
2022-08-05T04:02:57.943Z,22.30
2022-08-05T04:05:33.283Z,22.30
2022-08-05T04:08:29.750Z,22.30
2022-08-05T04:10:57.231Z,22.30
2022-08-05T04:13:50.422Z,22.20
2022-08-05T04:16:15.404Z,22.30
2022-08-05T04:18:54.219Z,22.30
2022-08-05T04:22:10.284Z,22.40
2022-08-05T04:24:18.668Z,22.40
2022-08-05T04:26:47.198Z,22.30
2022-08-05T04:29:14.286Z,22.30
2022-08-05T04:31:41.424Z,22.30
2022-08-05T04:34:19.010Z,22.40
2022-08-05T04:36:50.208Z,22.40
2022-08-05T04:39:19.620Z,22.40
2022-08-05T04:41:48.353Z,22.50
2022-08-05T04:44:21.304Z,22.60
2022-08-05T04:46:56.163Z,22.60
2022-08-05T04:49:24.670Z,22.70
2022-08-05T04:52:07.738Z,22.80
2022-08-05T04:54:34.807Z,22.80
2022-08-05T04:57:01.749Z,22.90
2022-08-05T04:59:36.809Z,23.00
2022-08-05T05:02:41.182Z,23.00
2022-08-05T05:04:52.927Z,23.10
2022-08-05T05:07:32.352Z,23.20
2022-08-05T05:10:04.414Z,23.30
2022-08-05T05:12:31.658Z,23.40
2022-08-05T05:14:58.790Z,23.50
2022-08-05T05:17:56.713Z,23.60
2022-08-05T05:20:14.125Z,23.60
2022-08-05T05:22:44.182Z,23.80
2022-08-05T05:25:17.086Z,23.90
2022-08-05T05:27:53.616Z,24.00
2022-08-05T05:30:30.901Z,24.20
2022-08-05T05:33:03.474Z,24.40
2022-08-05T05:35:39.527Z,24.60
2022-08-05T05:38:13.308Z,24.80
2022-08-05T05:40:49.884Z,25.00
2022-08-05T05:43:21.864Z,25.20
2022-08-05T05:45:54.818Z,25.40
2022-08-05T05:48:27.616Z,25.60
2022-08-05T05:50:54.755Z,25.80
2022-08-05T05:53:22.790Z,25.90
2022-08-05T05:55:52.179Z,26.20
2022-08-05T05:58:31.395Z,26.40
2022-08-05T06:01:12.079Z,26.50
2022-08-05T06:04:01.153Z,26.70
2022-08-05T06:06:31.134Z,26.90
2022-08-05T06:09:00.548Z,27.00
2022-08-05T06:11:28.988Z,27.20
2022-08-05T06:13:56.786Z,27.40
2022-08-05T06:16:30.749Z,27.60
2022-08-05T06:19:01.751Z,27.80
2022-08-05T06:21:36.811Z,27.90
2022-08-05T06:24:11.858Z,28.10
2022-08-05T06:26:51.571Z,28.30
2022-08-05T06:29:25.104Z,28.40
2022-08-05T06:32:21.051Z,28.70
2022-08-05T06:34:56.531Z,28.90
2022-08-05T06:37:56.059Z,29.10
2022-08-05T06:40:18.449Z,29.30
2022-08-05T06:42:52.108Z,29.40
2022-08-05T06:45:44.996Z,29.50
2022-08-05T06:48:36.960Z,29.60
2022-08-05T06:50:56.159Z,29.80
2022-08-05T06:53:28.285Z,30.00
2022-08-05T06:56:00.256Z,30.10
2022-08-05T06:58:29.928Z,30.40
2022-08-05T07:01:04.613Z,30.40
2022-08-05T07:03:33.219Z,30.60
2022-08-05T07:06:05.981Z,30.70
2022-08-05T07:08:47.783Z,30.90
2022-08-05T07:11:21.966Z,31.10
2022-08-05T07:14:20.569Z,31.30
2022-08-05T07:18:08.749Z,31.40
2022-08-05T07:20:32.133Z,31.50
2022-08-05T07:22:37.803Z,31.50
2022-08-05T07:25:24.117Z,31.50
2022-08-05T07:27:58.502Z,31.50
2022-08-05T07:30:32.518Z,31.60
2022-08-05T07:33:15.968Z,31.60
2022-08-05T07:36:03.459Z,31.90
2022-08-05T07:38:43.491Z,32.20
2022-08-05T07:42:13.396Z,32.30
2022-08-05T07:44:14.305Z,32.40
2022-08-05T07:46:53.875Z,32.50
2022-08-05T07:49:21.441Z,32.60
2022-08-05T07:51:53.479Z,32.60
2022-08-05T07:54:33.442Z,32.90
2022-08-05T07:57:23.625Z,33.00
2022-08-05T07:59:52.446Z,33.00
2022-08-05T08:02:31.134Z,33.00
2022-08-05T08:05:17.409Z,33.10
2022-08-05T08:07:59.631Z,33.00
2022-08-05T08:10:28.722Z,33.00
2022-08-05T08:12:59.708Z,33.00
2022-08-05T08:16:33.634Z,33.20
2022-08-05T08:18:20.875Z,33.20
2022-08-05T08:21:02.475Z,33.10
2022-08-05T08:24:01.968Z,33.20
2022-08-05T08:26:17.722Z,33.30
2022-08-05T08:29:21.768Z,33.40
2022-08-05T08:31:46.685Z,33.50
2022-08-05T08:34:30.693Z,33.80
2022-08-05T08:37:03.353Z,33.60
2022-08-05T08:39:32.506Z,33.60
2022-08-05T08:42:10.803Z,33.70
2022-08-05T08:45:23.786Z,33.90
2022-08-05T08:48:06.847Z,33.90
2022-08-05T08:51:03.310Z,34.00
2022-08-05T08:53:35.433Z,34.30
2022-08-05T08:56:13.267Z,34.30
2022-08-05T08:58:44.708Z,34.50
2022-08-05T09:01:18.211Z,34.70
2022-08-05T09:03:58.327Z,34.80
2022-08-05T09:06:29.993Z,35.00
2022-08-05T09:09:01.191Z,35.10
2022-08-05T09:11:50.831Z,35.20
2022-08-05T09:14:57.810Z,35.20
2022-08-05T09:17:39.970Z,35.20
2022-08-05T09:20:02.360Z,35.20
2022-08-05T09:23:07.812Z,35.30
2022-08-05T09:26:02.926Z,35.40
2022-08-05T09:28:31.499Z,35.50
2022-08-05T09:31:44.208Z,35.40
2022-08-05T09:34:09.801Z,35.60
2022-08-05T09:36:59.192Z,35.70
2022-08-05T09:39:45.816Z,35.70
2022-08-05T09:42:23.366Z,35.90
2022-08-05T09:44:56.352Z,36.00
2022-08-05T09:47:46.581Z,35.90
2022-08-05T09:50:38.110Z,35.70
2022-08-05T09:53:07.118Z,35.70
2022-08-05T09:55:57.130Z,35.70
2022-08-05T09:58:25.370Z,35.70
2022-08-05T10:01:01.322Z,35.90
2022-08-05T10:03:56.968Z,35.90
2022-08-05T10:06:20.744Z,36.00
2022-08-05T10:08:50.319Z,35.90
2022-08-05T10:11:21.360Z,36.10
2022-08-05T10:13:54.604Z,36.10
2022-08-05T10:16:41.825Z,36.10
2022-08-05T10:19:31.884Z,36.00
2022-08-05T10:22:30.204Z,36.20
2022-08-05T10:24:59.248Z,36.30
2022-08-05T10:28:13.232Z,36.40
2022-08-05T10:31:20.711Z,36.60
2022-08-05T10:33:35.214Z,36.70
2022-08-05T10:36:05.143Z,36.60
2022-08-05T10:38:36.213Z,36.60
2022-08-05T10:41:45.166Z,36.60
2022-08-05T10:44:20.351Z,36.80
2022-08-05T10:46:54.751Z,36.80
2022-08-05T10:49:33.352Z,36.80
2022-08-05T10:52:49.583Z,36.80
2022-08-05T10:55:18.480Z,36.90
2022-08-05T10:57:46.191Z,37.00
2022-08-05T11:00:23.251Z,37.10
2022-08-05T11:03:24.372Z,37.10
2022-08-05T11:06:15.362Z,37.10
2022-08-05T11:09:31.989Z,37.30
2022-08-05T11:12:42.184Z,37.20
2022-08-05T11:15:21.648Z,37.30
2022-08-05T11:18:11.651Z,37.30
2022-08-05T11:20:47.766Z,37.10
2022-08-05T11:24:04.326Z,37.20
2022-08-05T11:26:29.133Z,37.30
2022-08-05T11:29:13.129Z,37.30
2022-08-05T11:31:57.877Z,37.50
2022-08-05T11:34:47.459Z,37.40
2022-08-05T11:38:29.157Z,37.30
2022-08-05T11:41:34.592Z,37.30
2022-08-05T11:44:08.510Z,37.40
2022-08-05T11:46:58.476Z,37.30
2022-08-05T11:49:29.348Z,37.30
2022-08-05T11:52:02.092Z,37.30
2022-08-05T11:54:41.379Z,37.20
2022-08-05T11:57:25.015Z,37.00
2022-08-05T11:59:53.833Z,37.00
2022-08-05T12:02:31.898Z,36.90
2022-08-05T12:05:07.947Z,37.00
2022-08-05T12:08:07.814Z,37.00
2022-08-05T12:10:43.805Z,37.10
2022-08-05T12:13:18.929Z,37.10
2022-08-05T12:16:15.070Z,37.10
2022-08-05T12:18:48.945Z,37.10
2022-08-05T12:21:42.226Z,37.10
2022-08-05T12:24:14.311Z,37.00
2022-08-05T12:26:50.606Z,37.00
2022-08-05T12:29:22.971Z,36.90
2022-08-05T12:32:01.963Z,36.80
2022-08-05T12:34:33.315Z,36.60
2022-08-05T12:37:29.816Z,36.50
2022-08-05T12:40:03.511Z,36.50
2022-08-05T12:42:39.913Z,36.50
2022-08-05T12:45:10.965Z,36.50
2022-08-05T12:47:43.419Z,36.50
2022-08-05T12:50:25.982Z,36.40
2022-08-05T12:53:01.415Z,36.40
2022-08-05T12:55:32.481Z,36.30
2022-08-05T12:58:48.950Z,36.20
2022-08-05T13:02:02.522Z,36.20
2022-08-05T13:03:43.323Z,36.00
2022-08-05T13:06:17.691Z,35.90
2022-08-05T13:08:51.724Z,35.80
2022-08-05T13:11:25.576Z,35.70
2022-08-05T13:14:20.222Z,35.60
2022-08-05T13:16:56.381Z,35.70
2022-08-05T13:19:27.545Z,35.70
2022-08-05T13:22:15.079Z,35.70
2022-08-05T13:25:05.845Z,35.70
2022-08-05T13:27:43.785Z,35.70
2022-08-05T13:30:34.837Z,35.70
2022-08-05T13:33:05.459Z,35.70
2022-08-05T13:35:47.395Z,35.70
2022-08-05T13:38:30.563Z,35.80
2022-08-05T13:41:01.323Z,35.80
2022-08-05T13:43:45.446Z,35.80
2022-08-05T13:46:16.500Z,35.70
2022-08-05T13:49:03.809Z,35.70
2022-08-05T13:51:40.327Z,35.70
2022-08-05T13:54:15.032Z,35.80
2022-08-05T13:56:50.792Z,35.80
2022-08-05T13:59:21.440Z,35.90
2022-08-05T14:02:00.310Z,35.90
2022-08-05T14:04:51.039Z,35.90
2022-08-05T14:07:59.498Z,35.90
2022-08-05T14:10:28.718Z,35.80
2022-08-05T14:12:59.399Z,35.80
2022-08-05T14:16:05.957Z,35.80
2022-08-05T14:18:18.557Z,35.80
2022-08-05T14:20:54.489Z,35.70
2022-08-05T14:23:25.707Z,35.60
2022-08-05T14:25:58.262Z,35.50
2022-08-05T14:28:28.403Z,35.40
2022-08-05T14:31:00.578Z,35.60
2022-08-05T14:33:32.647Z,35.60
2022-08-05T14:36:15.571Z,35.60
2022-08-05T14:38:47.972Z,35.70
2022-08-05T14:41:15.187Z,35.70
2022-08-05T14:44:01.832Z,35.70
2022-08-05T14:46:35.325Z,35.80
2022-08-05T14:49:07.571Z,35.90
2022-08-05T14:51:37.988Z,36.00
2022-08-05T14:54:27.746Z,35.90
2022-08-05T14:56:54.992Z,35.90
2022-08-05T14:59:22.338Z,35.90
2022-08-05T15:01:50.184Z,35.90
2022-08-05T15:04:22.596Z,35.90
2022-08-05T15:06:51.332Z,35.90
2022-08-05T15:09:51.790Z,35.90
2022-08-05T15:12:11.718Z,36.00
2022-08-05T15:14:49.976Z,36.00
2022-08-05T15:17:47.339Z,35.90
2022-08-05T15:20:18.618Z,35.90
2022-08-05T15:22:54.104Z,35.70
2022-08-05T15:25:40.858Z,35.60
2022-08-05T15:28:13.367Z,35.60
2022-08-05T15:30:45.589Z,35.60
2022-08-05T15:34:04.704Z,35.60
2022-08-05T15:36:05.709Z,35.50
2022-08-05T15:38:41.258Z,35.40
2022-08-05T15:41:22.464Z,35.40
2022-08-05T15:43:54.752Z,35.40
2022-08-05T15:46:24.101Z,35.50
2022-08-05T15:48:55.642Z,35.40
2022-08-05T15:52:04.416Z,35.40
2022-08-05T15:54:18.370Z,35.40
2022-08-05T15:56:45.476Z,35.30
2022-08-05T15:59:22.344Z,35.20
2022-08-05T16:01:52.832Z,35.30
2022-08-05T16:04:25.499Z,35.30
2022-08-05T16:06:55.811Z,35.30
2022-08-05T16:09:25.124Z,35.20
2022-08-05T16:11:54.794Z,35.30
2022-08-05T16:14:24.156Z,35.20
2022-08-05T16:16:56.509Z,35.20
2022-08-05T16:20:05.296Z,35.30
2022-08-05T16:22:15.489Z,35.20
2022-08-05T16:24:51.183Z,35.00
2022-08-05T16:27:32.022Z,35.00
2022-08-05T16:30:26.513Z,35.00
2022-08-05T16:32:55.798Z,34.90
2022-08-05T16:35:28.365Z,34.80
2022-08-05T16:38:15.603Z,34.70
2022-08-05T16:40:51.894Z,34.50
2022-08-05T16:43:27.770Z,34.50
2022-08-05T16:46:06.636Z,34.40
2022-08-05T16:48:40.344Z,34.40
2022-08-05T16:51:09.492Z,34.20
2022-08-05T16:54:06.299Z,34.20
2022-08-05T16:56:29.319Z,34.10
2022-08-05T16:58:57.754Z,34.00
2022-08-05T17:01:24.965Z,33.80
2022-08-05T17:03:52.270Z,33.80
2022-08-05T17:06:20.477Z,33.60
2022-08-05T17:08:54.372Z,33.50
2022-08-05T17:11:25.303Z,33.50
2022-08-05T17:14:00.629Z,33.40
2022-08-05T17:16:36.516Z,33.40
2022-08-05T17:19:09.294Z,33.30
2022-08-05T17:21:37.696Z,33.30
2022-08-05T17:24:28.255Z,33.20
2022-08-05T17:26:59.114Z,33.20
2022-08-05T17:29:33.301Z,33.20
2022-08-05T17:32:16.835Z,33.10
2022-08-05T17:34:48.086Z,33.00
2022-08-05T17:37:39.801Z,33.00
2022-08-05T17:40:10.313Z,32.90
2022-08-05T17:42:42.912Z,32.80
2022-08-05T17:45:21.143Z,32.60
2022-08-05T17:47:55.711Z,31.70
2022-08-05T17:50:30.277Z,30.80
2022-08-05T17:53:05.381Z,30.60
2022-08-05T17:55:38.082Z,29.90
2022-08-05T17:58:13.506Z,29.30
2022-08-05T18:00:50.542Z,28.70
2022-08-05T18:06:11.331Z,28.20
2022-08-05T18:08:40.507Z,28.10
2022-08-05T18:11:24.759Z,27.80
2022-08-05T18:13:59.852Z,27.70
2022-08-05T18:16:27.258Z,27.60
2022-08-05T18:18:54.343Z,27.40
2022-08-05T18:21:26.455Z,27.30
2022-08-05T18:24:12.678Z,27.30
2022-08-05T18:26:41.719Z,27.40
2022-08-05T18:29:10.892Z,27.30
2022-08-05T18:31:38.396Z,27.30
2022-08-05T18:34:12.173Z,27.30
2022-08-05T18:36:41.249Z,27.30
2022-08-05T18:39:42.021Z,27.20
2022-08-05T18:42:07.617Z,27.30
2022-08-05T18:44:48.960Z,27.20
2022-08-05T18:47:16.545Z,27.20
2022-08-05T18:50:02.052Z,27.30
2022-08-05T18:52:33.664Z,27.30
2022-08-05T18:55:10.441Z,27.30
2022-08-05T18:57:49.964Z,27.10
2022-08-05T19:00:21.042Z,26.50
2022-08-05T19:02:55.486Z,26.10
2022-08-05T19:06:13.370Z,25.60
2022-08-05T19:08:13.523Z,25.40
2022-08-05T19:10:42.398Z,25.10
2022-08-05T19:13:12.245Z,25.10
2022-08-05T19:15:58.764Z,25.10
2022-08-05T19:18:28.655Z,25.10
2022-08-05T19:20:56.226Z,25.00
2022-08-05T19:24:06.718Z,24.80
2022-08-05T19:26:11.115Z,24.70
2022-08-05T19:28:42.249Z,24.50
2022-08-05T19:31:13.506Z,24.50
2022-08-05T19:33:48.493Z,24.50
2022-08-05T19:36:29.374Z,24.40
2022-08-05T19:39:01.315Z,24.20
2022-08-05T19:42:05.446Z,23.90
2022-08-05T19:44:19.046Z,23.80
2022-08-05T19:46:47.062Z,23.60
2022-08-05T20:06:46.460Z,23.70
2022-08-05T20:09:14.488Z,23.40
2022-08-05T20:11:48.123Z,23.30
2022-08-05T20:14:26.753Z,23.20
2022-08-05T20:16:55.374Z,23.00
2022-08-05T20:19:23.695Z,23.10
2022-08-05T20:22:02.938Z,23.10
2022-08-05T20:24:32.935Z,23.20
2022-08-05T20:27:02.254Z,23.30
2022-08-05T20:29:29.403Z,23.20
2022-08-05T20:31:58.358Z,23.10
2022-08-05T20:34:27.029Z,23.20
2022-08-05T20:36:54.205Z,23.40
2022-08-05T20:39:22.830Z,23.50
2022-08-05T20:41:50.005Z,23.40
2022-08-05T20:44:30.194Z,23.30
2022-08-05T20:47:06.708Z,23.40
2022-08-05T20:49:39.695Z,23.30
2022-08-05T21:03:37.969Z,23.40
2022-08-05T21:06:28.228Z,23.40
2022-08-05T21:08:55.734Z,23.30
2022-08-05T21:12:06.525Z,23.10
2022-08-05T21:14:10.185Z,23.20
2022-08-05T21:16:39.901Z,23.20
2022-08-05T21:19:06.892Z,23.00
2022-08-05T21:21:39.585Z,22.80
2022-08-05T21:24:13.525Z,22.60
2022-08-05T21:26:50.250Z,22.50
2022-08-05T21:29:26.694Z,22.40
2022-08-05T21:31:59.146Z,22.30
2022-08-05T21:34:26.178Z,22.20
2022-08-05T21:36:55.410Z,22.20
2022-08-05T21:39:26.979Z,22.10
2022-08-05T21:42:01.492Z,22.00
2022-08-05T21:44:31.060Z,22.00
2022-08-05T21:46:59.681Z,22.00
2022-08-05T21:49:58.472Z,22.00
2022-08-05T21:52:21.999Z,21.90
2022-08-05T21:54:56.362Z,21.90
2022-08-05T21:57:32.621Z,22.00
2022-08-05T22:00:05.535Z,22.10
2022-08-05T22:02:33.991Z,22.10
2022-08-05T22:05:01.256Z,22.20
2022-08-05T22:07:40.101Z,22.10
2022-08-05T22:10:17.525Z,22.00
2022-08-05T22:12:54.226Z,22.00
2022-08-05T22:16:02.431Z,22.00
2022-08-05T22:18:08.604Z,22.10
2022-08-05T22:20:39.119Z,21.90
2022-08-05T22:24:00.715Z,21.80
2022-08-05T22:26:31.547Z,21.90
2022-08-05T22:29:00.645Z,21.80
2022-08-05T22:31:30.271Z,21.70
2022-08-05T22:34:01.363Z,21.70
2022-08-05T22:36:29.277Z,21.70
2022-08-05T22:38:56.917Z,21.80
2022-08-05T22:42:04.178Z,21.90
2022-08-05T22:44:12.008Z,21.90
2022-08-05T22:46:40.870Z,22.00
2022-08-05T22:50:18.361Z,22.10
2022-08-05T22:52:05.050Z,22.10
2022-08-05T22:54:34.001Z,22.20
2022-08-05T22:57:01.056Z,22.20
2022-08-05T22:59:43.966Z,22.10
2022-08-05T23:02:16.468Z,22.00
2022-08-05T23:05:02.017Z,21.90
2022-08-05T23:07:44.807Z,21.90
2022-08-05T23:10:20.311Z,21.80
2022-08-05T23:12:54.701Z,21.70
2022-08-05T23:15:29.444Z,21.60
2022-08-05T23:18:03.361Z,21.60
2022-08-05T23:20:37.280Z,21.60
2022-08-05T23:23:08.405Z,21.50
2022-08-05T23:25:51.046Z,21.40
2022-08-05T23:28:21.153Z,21.50
2022-08-05T23:30:53.663Z,21.50
2022-08-05T23:33:26.479Z,21.50
2022-08-05T23:36:10.277Z,21.40
2022-08-05T23:38:39.217Z,21.50
2022-08-05T23:41:06.407Z,21.50
2022-08-05T23:44:06.492Z,21.40
2022-08-05T23:46:22.152Z,21.40
2022-08-05T23:49:00.721Z,21.50
2022-08-05T23:51:53.889Z,21.60
2022-08-05T23:54:25.607Z,21.60
2022-08-05T23:57:03.791Z,21.40
